Time;durP1;ratioP1;P1;durP2;ratioP2;P2;SDS_P1;SDS_P2;PMS_P1;PMS_P2;Temp;Humidity;BMP_temperature;BMP_pressure;BME280_temperature;BME280_humidity;BME280_pressure;Samples;Min_cycle;Max_cycle;Signal;HPM_P1;HPM_P2
2023/05/16 00:00:51;;;;;;;8.70;7.23;;;14.00;99.90;;;;;;5010008;28;20466;-56
2023/05/16 00:03:18;;;;;;;7.80;7.00;;;13.90;99.90;;;;;;5014559;28;20497;-56
2023/05/16 00:05:45;;;;;;;10.17;7.20;;;13.90;99.90;;;;;;5010741;28;20464;-55
2023/05/16 00:08:13;;;;;;;7.73;6.93;;;13.90;99.90;;;;;;5016979;28;20463;-56
2023/05/16 00:10:40;;;;;;;12.97;6.50;;;13.80;99.90;;;;;;5010234;28;20495;-56
2023/05/16 00:13:06;;;;;;;10.43;6.40;;;13.80;99.90;;;;;;5018619;28;20571;-56
2023/05/16 00:15:33;;;;;;;7.97;7.17;;;13.80;99.90;;;;;;5009963;28;20487;-56
2023/05/16 00:18:00;;;;;;;7.67;7.00;;;13.70;99.90;;;;;;5010357;28;20515;-55
2023/05/16 00:20:27;;;;;;;6.97;6.30;;;13.70;99.90;;;;;;5011212;28;20463;-56
2023/05/16 00:22:54;;;;;;;7.13;6.53;;;13.60;99.90;;;;;;5009144;28;20567;-55
2023/05/16 00:25:23;;;;;;;9.07;6.97;;;13.60;99.90;;;;;;5010100;28;20522;-55
2023/05/16 00:27:49;;;;;;;14.80;7.50;;;13.50;99.90;;;;;;5009807;28;20483;-56
2023/05/16 00:30:16;;;;;;;7.83;6.10;;;13.50;99.90;;;;;;5006298;28;20483;-55
2023/05/16 00:32:42;;;;;;;7.50;6.80;;;13.50;99.90;;;;;;5009092;28;20573;-55
2023/05/16 00:35:10;;;;;;;11.73;6.80;;;13.50;99.90;;;;;;5010312;28;20490;-55
2023/05/16 00:37:37;;;;;;;8.07;6.90;;;13.50;99.90;;;;;;5010823;28;21033;-56
2023/05/16 00:40:04;;;;;;;7.40;6.70;;;13.40;99.90;;;;;;5008617;28;20470;-55
2023/05/16 00:42:32;;;;;;;14.40;7.63;;;13.40;99.90;;;;;;5015277;28;20460;-57
2023/05/16 00:44:59;;;;;;;8.20;7.20;;;13.40;99.90;;;;;;5011200;28;20498;-55
2023/05/16 00:47:25;;;;;;;7.77;7.07;;;13.40;99.90;;;;;;5011536;28;20436;-54
2023/05/16 00:49:52;;;;;;;17.23;7.27;;;13.30;99.90;;;;;;5010770;28;20553;-56
2023/05/16 00:52:19;;;;;;;11.63;8.23;;;13.30;99.90;;;;;;5009376;28;20842;-55
2023/05/16 00:54:45;;;;;;;10.73;7.80;;;13.30;99.90;;;;;;5009228;28;21005;-56
2023/05/16 00:57:12;;;;;;;8.97;8.07;;;13.20;99.90;;;;;;5004348;28;20507;-56
2023/05/16 00:59:41;;;;;;;8.37;7.63;;;13.20;99.90;;;;;;5010195;28;20546;-55
2023/05/16 01:02:07;;;;;;;9.63;8.47;;;13.20;99.90;;;;;;4999979;28;20468;-55
2023/05/16 01:04:35;;;;;;;10.23;8.33;;;13.20;99.90;;;;;;5005611;28;20574;-55
2023/05/16 01:07:02;;;;;;;9.40;8.60;;;13.20;99.90;;;;;;5003519;28;20546;-55
2023/05/16 01:09:29;;;;;;;13.20;9.03;;;13.20;99.90;;;;;;5011974;28;20883;-55
2023/05/16 01:12:02;;;;;;;14.63;9.57;;;13.00;99.90;;;;;;5012007;28;20459;-55
2023/05/16 01:14:44;;;;;;;15.13;8.70;;;13.00;99.90;;;;;;5014282;28;20507;-55
2023/05/16 01:17:20;;;;;;;12.13;9.50;;;13.00;99.90;;;;;;5008796;28;20981;-55
2023/05/16 01:19:56;;;;;;;10.07;9.10;;;13.00;99.80;;;;;;5015588;28;20526;-55
2023/05/16 01:22:36;;;;;;;11.20;9.80;;;12.90;96.10;;;;;;5013446;28;20554;-56
2023/05/16 01:25:11;;;;;;;11.17;9.70;;;12.90;95.80;;;;;;5020863;28;20463;-55
2023/05/16 01:27:39;;;;;;;12.60;9.23;;;12.80;93.50;;;;;;5013464;28;20491;-56
2023/05/16 01:30:15;;;;;;;11.17;9.60;;;12.80;93.20;;;;;;5015171;28;20471;-55
2023/05/16 01:32:42;;;;;;;19.57;9.90;;;12.80;93.30;;;;;;5017910;28;20486;-56
2023/05/16 01:35:12;;;;;;;11.07;9.80;;;12.70;94.10;;;;;;5015864;28;20509;-55
2023/05/16 01:37:44;;;;;;;12.67;9.67;;;12.50;93.50;;;;;;5021139;28;20563;-55
2023/05/16 01:40:16;;;;;;;11.60;10.00;;;12.60;92.40;;;;;;5016513;28;20459;-55
2023/05/16 01:42:46;;;;;;;23.70;10.40;;;12.40;89.60;;;;;;5013088;28;20483;-55
2023/05/16 01:45:18;;;;;;;12.37;10.20;;;12.40;91.10;;;;;;5016849;28;20548;-56
2023/05/16 01:47:51;;;;;;;17.13;9.60;;;12.30;91.30;;;;;;5011769;28;20551;-56
2023/05/16 01:50:22;;;;;;;13.57;10.20;;;12.30;89.20;;;;;;5017082;28;20597;-57
2023/05/16 01:52:56;;;;;;;14.00;10.43;;;12.30;90.70;;;;;;5011273;28;21195;-56
2023/05/16 01:55:33;;;;;;;15.23;10.20;;;12.20;88.40;;;;;;5018259;28;20498;-55
2023/05/16 01:58:04;;;;;;;11.90;10.30;;;12.20;90.60;;;;;;5011169;28;21083;-56
2023/05/16 02:00:31;;;;;;;10.33;9.40;;;12.10;89.50;;;;;;5012493;28;20538;-56
2023/05/16 02:02:58;;;;;;;10.27;9.27;;;12.00;92.60;;;;;;5017046;28;20488;-56
2023/05/16 02:05:24;;;;;;;10.03;9.20;;;11.90;94.00;;;;;;5013773;28;20510;-56
2023/05/16 02:07:51;;;;;;;10.47;8.77;;;11.90;93.50;;;;;;5011348;28;20464;-56
2023/05/16 02:10:18;;;;;;;13.53;8.93;;;11.80;94.30;;;;;;5016785;28;20483;-56
2023/05/16 02:12:45;;;;;;;14.40;9.70;;;11.70;93.30;;;;;;5013378;28;20483;-56
2023/05/16 02:15:13;;;;;;;10.07;9.10;;;11.60;91.90;;;;;;5014313;28;20491;-56
2023/05/16 02:17:40;;;;;;;10.43;8.80;;;11.60;94.80;;;;;;5014581;28;20452;-56
2023/05/16 02:20:09;;;;;;;9.90;8.90;;;11.50;95.40;;;;;;5009766;28;20460;-56
2023/05/16 02:22:36;;;;;;;11.33;9.27;;;11.50;93.70;;;;;;5018870;28;20590;-56
2023/05/16 02:25:03;;;;;;;10.00;9.00;;;11.40;96.20;;;;;;5013986;28;20464;-56
2023/05/16 02:27:30;;;;;;;9.83;8.87;;;11.30;92.40;;;;;;5015773;28;20498;-56
2023/05/16 02:29:56;;;;;;;12.60;10.40;;;11.30;93.00;;;;;;5009289;28;20862;-55
2023/05/16 02:32:25;;;;;;;12.33;9.50;;;11.30;94.00;;;;;;5015796;28;20917;-56
2023/05/16 02:34:52;;;;;;;14.93;9.47;;;11.30;94.80;;;;;;5019230;28;20465;-55
2023/05/16 02:37:18;;;;;;;12.40;9.80;;;11.20;95.60;;;;;;5012495;28;20509;-56
2023/05/16 02:39:45;;;;;;;11.20;10.13;;;11.20;95.00;;;;;;5010814;28;21057;-55
2023/05/16 02:42:11;;;;;;;12.67;10.00;;;11.20;95.90;;;;;;5017319;28;20489;-55
2023/05/16 02:44:38;;;;;;;10.57;9.53;;;11.10;96.10;;;;;;5018140;28;20512;-56
2023/05/16 02:47:04;;;;;;;13.77;10.90;;;11.10;99.60;;;;;;5011571;28;20495;-55
2023/05/16 02:49:32;;;;;;;11.53;9.67;;;11.10;96.70;;;;;;5015142;28;20496;-56
2023/05/16 02:51:59;;;;;;;14.03;9.90;;;11.00;95.20;;;;;;5012667;28;20464;-56
2023/05/16 02:54:25;;;;;;;11.57;10.47;;;11.10;99.00;;;;;;5011500;28;20515;-56
2023/05/16 02:56:52;;;;;;;21.73;10.60;;;11.10;98.30;;;;;;5012881;28;20503;-56
2023/05/16 02:59:19;;;;;;;14.50;10.60;;;11.10;97.00;;;;;;5013098;28;20939;-55
2023/05/16 03:01:45;;;;;;;11.53;10.40;;;11.10;99.90;;;;;;5012915;28;20503;-56
2023/05/16 03:04:12;;;;;;;21.33;10.90;;;11.10;99.90;;;;;;5013221;28;20515;-57
2023/05/16 03:06:40;;;;;;;15.03;10.80;;;11.10;99.90;;;;;;5012741;28;20502;-56
2023/05/16 03:09:07;;;;;;;10.90;10.00;;;11.10;99.90;;;;;;5015439;28;20972;-56
2023/05/16 03:11:34;;;;;;;11.50;10.23;;;11.10;99.90;;;;;;5016791;28;20454;-56
2023/05/16 03:14:00;;;;;;;11.63;10.20;;;11.10;99.90;;;;;;5017308;28;20470;-56
2023/05/16 03:16:27;;;;;;;12.13;10.33;;;11.10;99.90;;;;;;5018602;28;20447;-55
2023/05/16 03:18:54;;;;;;;15.37;11.43;;;11.10;99.90;;;;;;5021358;28;20534;-56
2023/05/16 03:21:20;;;;;;;13.10;10.67;;;11.10;99.90;;;;;;5016738;28;20464;-56
2023/05/16 03:23:48;;;;;;;13.03;11.13;;;11.10;99.90;;;;;;5020038;28;20517;-56
2023/05/16 03:26:15;;;;;;;12.47;11.27;;;11.20;99.90;;;;;;5021195;28;21010;-55
2023/05/16 03:28:42;;;;;;;14.13;12.17;;;11.10;99.90;;;;;;5012313;28;20566;-56
2023/05/16 03:31:08;;;;;;;18.50;12.20;;;11.10;99.90;;;;;;5012671;28;20514;-56
2023/05/16 03:33:35;;;;;;;14.73;11.20;;;11.10;99.90;;;;;;5008893;28;20517;-57
2023/05/16 03:36:01;;;;;;;14.00;10.73;;;11.10;99.90;;;;;;5003090;28;20494;-55
2023/05/16 03:38:28;;;;;;;14.27;11.40;;;11.10;99.90;;;;;;5011866;28;20845;-55
2023/05/16 03:40:56;;;;;;;12.90;11.23;;;11.20;99.90;;;;;;5010986;28;20502;-56
2023/05/16 03:43:22;;;;;;;12.83;11.40;;;11.20;99.90;;;;;;5011373;28;20520;-55
2023/05/16 03:45:49;;;;;;;18.43;13.33;;;11.20;99.90;;;;;;5011970;28;20517;-56
2023/05/16 03:48:16;;;;;;;16.07;12.67;;;11.10;99.90;;;;;;5010155;28;20510;-55
2023/05/16 03:50:42;;;;;;;15.90;13.03;;;11.10;99.90;;;;;;5010688;28;20518;-55
2023/05/16 03:53:09;;;;;;;14.90;13.50;;;11.10;99.90;;;;;;5006211;28;20566;-55
2023/05/16 03:55:36;;;;;;;14.63;12.80;;;11.10;99.90;;;;;;5008061;28;20495;-56
2023/05/16 03:58:04;;;;;;;15.57;12.57;;;11.00;99.90;;;;;;5010219;28;20889;-55
2023/05/16 04:00:30;;;;;;;14.30;12.77;;;11.00;99.90;;;;;;5008954;28;20507;-55
2023/05/16 04:02:57;;;;;;;18.53;13.33;;;11.00;99.90;;;;;;5011376;28;20526;-49
2023/05/16 04:05:23;;;;;;;21.10;13.50;;;11.00;99.90;;;;;;5011056;28;20464;-49
2023/05/16 04:07:50;;;;;;;19.37;13.93;;;11.00;99.90;;;;;;5008153;28;20471;-49
2023/05/16 04:10:16;;;;;;;15.60;12.93;;;11.00;99.90;;;;;;5004534;28;20483;-50
2023/05/16 04:12:44;;;;;;;28.93;14.20;;;11.00;99.90;;;;;;5003493;28;20574;-49
2023/05/16 04:15:12;;;;;;;15.30;13.70;;;11.00;99.90;;;;;;5005714;28;20473;-49
2023/05/16 04:17:38;;;;;;;15.20;13.60;;;10.90;99.90;;;;;;5000976;28;20551;-51
2023/05/16 04:20:06;;;;;;;18.03;12.80;;;10.90;99.90;;;;;;5003651;28;20543;-50
2023/05/16 04:22:33;;;;;;;18.37;12.73;;;10.90;99.90;;;;;;5003509;28;20572;-50
2023/05/16 04:24:59;;;;;;;14.57;13.17;;;10.90;99.90;;;;;;5003748;28;20467;-50
2023/05/16 04:27:26;;;;;;;17.00;14.10;;;10.90;99.90;;;;;;5002864;28;20499;-49
2023/05/16 04:29:53;;;;;;;13.93;12.07;;;10.80;99.90;;;;;;5008425;28;20463;-49
2023/05/16 04:32:22;;;;;;;14.10;11.77;;;10.80;99.90;;;;;;5006898;28;20487;-49
2023/05/16 04:34:52;;;;;;;14.90;11.73;;;10.90;99.90;;;;;;5000921;28;20463;-50
2023/05/16 04:37:18;;;;;;;13.53;12.13;;;10.90;99.90;;;;;;5002003;28;20466;-49
2023/05/16 04:39:46;;;;;;;12.73;11.27;;;10.90;99.90;;;;;;4999997;28;20487;-50
2023/05/16 04:42:12;;;;;;;23.97;13.43;;;10.90;99.90;;;;;;5002443;28;20460;-50
2023/05/16 04:44:39;;;;;;;13.23;12.03;;;10.90;99.90;;;;;;5014752;28;20516;-49
2023/05/16 04:47:06;;;;;;;17.27;11.70;;;10.80;99.90;;;;;;5013023;28;20536;-49
2023/05/16 04:49:34;;;;;;;14.73;11.83;;;10.90;99.90;;;;;;5011602;28;20459;-50
2023/05/16 04:52:01;;;;;;;16.80;11.83;;;10.80;99.90;;;;;;5009596;28;20876;-49
2023/05/16 04:54:28;;;;;;;13.37;11.83;;;10.80;99.90;;;;;;5010726;28;20476;-50
2023/05/16 04:56:54;;;;;;;12.33;10.97;;;10.80;99.90;;;;;;5012905;28;20558;-50
2023/05/16 04:59:21;;;;;;;17.33;12.20;;;10.80;99.90;;;;;;5012282;28;20943;-50
2023/05/16 05:01:47;;;;;;;12.00;10.80;;;10.70;99.90;;;;;;5012361;28;20910;-50
2023/05/16 05:04:14;;;;;;;16.67;12.00;;;10.70;99.90;;;;;;5011975;28;20533;-50
2023/05/16 05:06:42;;;;;;;12.10;10.90;;;10.60;99.90;;;;;;5013597;28;20836;-50
2023/05/16 05:09:09;;;;;;;21.43;10.47;;;10.60;99.90;;;;;;5009197;28;20459;-50
2023/05/16 05:11:36;;;;;;;19.20;10.90;;;10.70;99.90;;;;;;5009933;28;20488;-49
2023/05/16 05:14:03;;;;;;;13.47;11.97;;;10.70;99.90;;;;;;5007938;28;20517;-50
2023/05/16 05:16:30;;;;;;;10.80;9.70;;;10.70;99.90;;;;;;5009909;28;20493;-50
2023/05/16 05:18:56;;;;;;;10.27;8.90;;;10.60;99.90;;;;;;5011842;28;20479;-51
2023/05/16 05:21:24;;;;;;;14.20;10.80;;;10.70;99.90;;;;;;5013006;28;20469;-51
2023/05/16 05:23:52;;;;;;;10.10;9.07;;;10.70;99.90;;;;;;5015609;28;20485;-50
2023/05/16 05:26:20;;;;;;;11.27;10.23;;;10.70;99.90;;;;;;5009823;28;20492;-50
2023/05/16 05:28:46;;;;;;;10.90;8.43;;;10.80;99.90;;;;;;5010949;28;20599;-49
2023/05/16 05:31:13;;;;;;;12.20;9.37;;;10.70;99.90;;;;;;5007543;28;20553;-50
2023/05/16 05:33:41;;;;;;;10.77;9.67;;;10.70;99.90;;;;;;5010039;28;20571;-50
2023/05/16 05:36:08;;;;;;;11.13;10.03;;;10.70;99.90;;;;;;5012645;28;20492;-49
2023/05/16 05:38:35;;;;;;;14.93;10.00;;;10.70;99.90;;;;;;5012370;28;20478;-50
2023/05/16 05:41:03;;;;;;;11.70;9.57;;;10.80;99.90;;;;;;5011650;28;21064;-50
2023/05/16 05:43:29;;;;;;;14.30;10.87;;;10.80;99.90;;;;;;5013201;28;20524;-50
2023/05/16 05:45:56;;;;;;;16.80;9.80;;;10.70;99.90;;;;;;5011961;28;20474;-50
2023/05/16 05:48:23;;;;;;;13.80;10.00;;;10.70;99.90;;;;;;5008072;28;20544;-50
2023/05/16 05:50:49;;;;;;;10.33;8.63;;;10.80;99.90;;;;;;5014030;28;20846;-50
2023/05/16 05:53:16;;;;;;;9.67;8.63;;;10.80;99.90;;;;;;5011473;28;21024;-50
2023/05/16 05:55:42;;;;;;;17.13;8.43;;;10.90;99.90;;;;;;5012282;28;20552;-50
2023/05/16 05:58:10;;;;;;;9.30;8.47;;;10.80;99.90;;;;;;5012460;28;20497;-51
2023/05/16 06:00:37;;;;;;;9.57;8.53;;;10.90;99.90;;;;;;5011404;28;21016;-49
2023/05/16 06:03:04;;;;;;;11.40;8.37;;;11.00;99.90;;;;;;5010416;28;20581;-50
2023/05/16 06:05:30;;;;;;;10.50;8.80;;;10.80;99.90;;;;;;5011778;28;20461;-50
2023/05/16 06:07:57;;;;;;;9.03;8.00;;;10.90;99.90;;;;;;5010897;28;20978;-49
2023/05/16 06:10:23;;;;;;;9.40;8.50;;;10.90;99.90;;;;;;5013509;28;20495;-50
2023/05/16 06:12:50;;;;;;;8.80;7.17;;;11.00;99.90;;;;;;5012559;28;20529;-50
2023/05/16 06:15:19;;;;;;;12.57;8.00;;;10.90;99.90;;;;;;5011989;28;20943;-50
2023/05/16 06:17:45;;;;;;;9.47;8.20;;;11.00;99.90;;;;;;5011658;28;20502;-49
2023/05/16 06:20:12;;;;;;;17.47;7.93;;;11.00;99.90;;;;;;5011417;28;20552;-49
2023/05/16 06:22:39;;;;;;;15.73;7.50;;;10.90;99.90;;;;;;5011077;28;20515;-50
2023/05/16 06:25:06;;;;;;;8.87;7.20;;;10.90;99.90;;;;;;5007802;28;20468;-49
2023/05/16 06:27:33;;;;;;;8.27;7.37;;;10.90;99.90;;;;;;5010629;28;20479;-50
2023/05/16 06:29:59;;;;;;;15.90;6.73;;;10.80;99.90;;;;;;5009151;28;21028;-49
2023/05/16 06:32:28;;;;;;;9.70;7.87;;;10.80;99.90;;;;;;5010873;28;20960;-50
2023/05/16 06:34:54;;;;;;;14.83;7.07;;;10.80;99.90;;;;;;5008126;28;20460;-49
2023/05/16 06:37:22;;;;;;;11.17;6.60;;;10.90;99.90;;;;;;5010976;28;20456;-50
2023/05/16 06:39:49;;;;;;;7.47;6.77;;;10.90;99.90;;;;;;5008616;28;20497;-49
2023/05/16 06:42:15;;;;;;;11.80;6.57;;;11.00;99.90;;;;;;5007590;28;20506;-49
2023/05/16 06:44:42;;;;;;;7.50;6.80;;;11.10;99.90;;;;;;5006074;28;20529;-50
2023/05/16 06:47:08;;;;;;;9.70;5.53;;;11.00;99.90;;;;;;5008362;28;20514;-50
2023/05/16 06:49:36;;;;;;;11.00;6.30;;;11.00;99.90;;;;;;5010559;28;20541;-50
2023/05/16 06:52:03;;;;;;;12.93;5.97;;;11.10;99.90;;;;;;5009025;28;20459;-50
2023/05/16 06:54:31;;;;;;;10.40;5.90;;;11.10;99.90;;;;;;5010437;28;20529;-50
2023/05/16 06:56:57;;;;;;;12.77;6.60;;;11.00;99.90;;;;;;5010812;28;20476;-50
2023/05/16 06:59:24;;;;;;;5.90;5.30;;;11.00;99.90;;;;;;5009954;28;20514;-50
2023/05/16 07:01:50;;;;;;;14.00;5.30;;;10.90;99.90;;;;;;5009067;28;20645;-50
2023/05/16 07:04:17;;;;;;;10.03;5.93;;;11.00;99.90;;;;;;5009941;28;20515;-49
2023/05/16 07:06:44;;;;;;;6.07;4.87;;;11.00;99.90;;;;;;5010078;28;20503;-50
2023/05/16 07:09:11;;;;;;;6.93;5.37;;;11.00;99.90;;;;;;5010966;28;20945;-50
2023/05/16 07:11:38;;;;;;;8.03;5.17;;;11.00;99.90;;;;;;5011121;28;20465;-50
2023/05/16 07:14:04;;;;;;;7.70;4.47;;;11.00;99.90;;;;;;5013920;28;21027;-50
2023/05/16 07:16:31;;;;;;;15.00;5.63;;;11.00;99.90;;;;;;5011853;28;20475;-51
2023/05/16 07:18:58;;;;;;;6.43;5.17;;;11.10;99.90;;;;;;5008665;28;20467;-49
2023/05/16 07:21:25;;;;;;;8.40;5.07;;;11.10;99.90;;;;;;5011549;28;20487;-51
2023/05/16 07:23:53;;;;;;;6.90;5.00;;;11.10;99.90;;;;;;5009531;28;20585;-49
2023/05/16 07:26:21;;;;;;;8.77;4.63;;;11.10;99.90;;;;;;5010477;28;20495;-50
2023/05/16 07:28:48;;;;;;;12.60;5.40;;;11.20;99.90;;;;;;5009381;28;20470;-49
2023/05/16 07:31:15;;;;;;;5.03;4.43;;;11.20;99.90;;;;;;5009033;28;20989;-50
2023/05/16 07:33:42;;;;;;;5.93;5.10;;;11.30;99.90;;;;;;5009807;28;20476;-49
2023/05/16 07:36:10;;;;;;;5.20;4.70;;;11.20;99.90;;;;;;5009679;28;20518;-49
2023/05/16 07:38:36;;;;;;;5.17;3.80;;;11.30;99.90;;;;;;5011627;28;20451;-50
2023/05/16 07:41:05;;;;;;;6.10;4.50;;;11.30;99.90;;;;;;5011461;28;20493;-49
2023/05/16 07:43:34;;;;;;;8.60;4.27;;;11.20;99.90;;;;;;5010642;28;20524;-49
2023/05/16 07:46:00;;;;;;;4.57;3.23;;;11.30;99.90;;;;;;5006762;28;20469;-49
2023/05/16 07:48:27;;;;;;;3.67;2.97;;;11.40;99.90;;;;;;5008338;28;20534;-50
2023/05/16 07:50:54;;;;;;;5.37;3.03;;;11.40;99.90;;;;;;5008851;28;20505;-52
2023/05/16 07:53:21;;;;;;;4.30;3.00;;;11.50;99.90;;;;;;5007736;28;20549;-49
2023/05/16 07:55:47;;;;;;;5.03;3.30;;;11.50;99.90;;;;;;5006905;28;21898;-49
2023/05/16 07:58:15;;;;;;;5.97;3.03;;;11.50;99.90;;;;;;5009196;28;20505;-50
2023/05/16 08:00:42;;;;;;;4.77;3.00;;;11.40;99.90;;;;;;5008808;28;20511;-49
2023/05/16 08:03:09;;;;;;;3.90;2.60;;;11.50;99.90;;;;;;5008635;28;20534;-49
2023/05/16 08:05:35;;;;;;;8.37;3.30;;;11.50;99.90;;;;;;5008383;28;20466;-49
2023/05/16 08:08:02;;;;;;;6.80;2.57;;;11.50;99.90;;;;;;5009398;28;20497;-49
2023/05/16 08:10:28;;;;;;;6.17;2.20;;;11.50;99.90;;;;;;5006256;28;21014;-50
2023/05/16 08:12:55;;;;;;;5.30;3.33;;;11.50;99.90;;;;;;5004208;28;20534;-49
2023/05/16 08:15:23;;;;;;;5.00;2.37;;;11.40;99.90;;;;;;5009349;28;20488;-50
2023/05/16 08:17:50;;;;;;;5.80;2.20;;;11.50;99.90;;;;;;5010318;28;20491;-49
2023/05/16 08:20:16;;;;;;;5.37;2.23;;;11.60;99.90;;;;;;5007455;28;21008;-50
2023/05/16 08:22:43;;;;;;;6.00;2.43;;;11.70;99.90;;;;;;5009629;28;20548;-50
2023/05/16 08:25:10;;;;;;;6.73;2.47;;;11.70;99.90;;;;;;5006814;28;20965;-49
2023/05/16 08:27:37;;;;;;;4.00;2.13;;;11.50;99.90;;;;;;5006236;28;20545;-49
2023/05/16 08:30:04;;;;;;;15.63;2.13;;;11.60;99.90;;;;;;5009469;28;20521;-49
2023/05/16 08:32:31;;;;;;;10.60;2.40;;;11.60;99.90;;;;;;5009057;28;20537;-50
2023/05/16 08:34:58;;;;;;;11.33;2.40;;;11.60;99.90;;;;;;5009423;28;20510;-49
2023/05/16 08:37:25;;;;;;;8.20;2.33;;;11.70;99.90;;;;;;5009227;28;20497;-49
2023/05/16 08:39:51;;;;;;;8.07;2.97;;;11.70;99.90;;;;;;5008260;28;20568;-49
2023/05/16 08:42:18;;;;;;;5.43;2.00;;;11.80;99.90;;;;;;5009788;28;20487;-49
2023/05/16 08:44:44;;;;;;;2.83;1.67;;;11.90;99.90;;;;;;5005867;28;20502;-50
2023/05/16 08:47:13;;;;;;;8.97;2.20;;;11.80;99.90;;;;;;5006961;28;20495;-49
2023/05/16 08:49:41;;;;;;;4.70;1.97;;;11.90;20.20;;;;;;5006581;28;21463;-50
2023/05/16 08:52:09;;;;;;;3.33;1.87;;;11.80;24.90;;;;;;5007691;28;20464;-48
2023/05/16 08:54:36;;;;;;;10.63;2.17;;;11.80;21.20;;;;;;5004876;28;20904;-51
2023/05/16 08:57:04;;;;;;;10.50;2.07;;;11.80;99.50;;;;;;5007155;28;20491;-49
2023/05/16 08:59:32;;;;;;;6.83;1.50;;;11.90;25.70;;;;;;5008865;28;20491;-50
2023/05/16 09:01:59;;;;;;;5.13;2.20;;;11.80;27.50;;;;;;5003403;28;20494;-50
2023/05/16 09:04:26;;;;;;;7.20;2.30;;;12.00;27.20;;;;;;5009668;28;20486;-49
2023/05/16 09:06:54;;;;;;;7.47;1.93;;;12.00;27.70;;;;;;5005778;28;21038;-49
2023/05/16 09:09:21;;;;;;;7.53;2.87;;;11.80;37.90;;;;;;5011454;28;20509;-49
2023/05/16 09:11:47;;;;;;;9.10;2.40;;;11.80;26.40;;;;;;5009356;28;20909;-49
2023/05/16 09:14:14;;;;;;;7.30;1.70;;;11.80;27.00;;;;;;5006440;28;20917;-50
2023/05/16 09:16:41;;;;;;;5.33;2.20;;;11.80;26.60;;;;;;5003409;28;20498;-50
2023/05/16 09:19:12;;;;;;;7.93;1.90;;;11.80;23.30;;;;;;5009611;28;20506;-50
2023/05/16 09:21:40;;;;;;;7.87;2.73;;;11.90;99.90;;;;;;5011668;28;20551;-50
2023/05/16 09:24:09;;;;;;;2.93;2.00;;;11.90;27.90;;;;;;5010327;28;20470;-49
2023/05/16 09:26:38;;;;;;;8.90;1.80;;;12.00;32.50;;;;;;5001346;28;20459;-49
2023/05/16 09:29:11;;;;;;;41.27;2.77;;;11.90;25.00;;;;;;4997313;28;20475;-50
2023/05/16 09:31:38;;;;;;;6.23;2.10;;;11.90;26.50;;;;;;5009255;28;20545;-50
2023/05/16 09:34:07;;;;;;;6.53;1.87;;;11.90;24.30;;;;;;5010312;28;20511;-49
2023/05/16 09:36:34;;;;;;;8.97;2.30;;;12.00;24.10;;;;;;5011040;28;20499;-56
2023/05/16 09:39:01;;;;;;;8.67;2.37;;;12.00;75.10;;;;;;5013298;28;20557;-55
2023/05/16 09:41:32;;;;;;;8.80;2.33;;;12.00;25.00;;;;;;5009538;28;20492;-55
2023/05/16 09:43:59;;;;;;;9.60;2.10;;;12.00;26.30;;;;;;5011428;28;20916;-55
2023/05/16 09:46:27;;;;;;;6.50;1.93;;;11.90;28.40;;;;;;5012544;28;20502;-55
2023/05/16 09:48:55;;;;;;;2.83;1.90;;;12.00;29.40;;;;;;5011991;28;20469;-56
2023/05/16 09:51:22;;;;;;;4.40;1.90;;;12.10;29.10;;;;;;5006585;28;20549;-56
2023/05/16 09:53:49;;;;;;;4.07;2.07;;;12.00;29.80;;;;;;5011857;28;20509;-55
2023/05/16 09:56:17;;;;;;;3.20;1.93;;;12.10;26.20;;;;;;5012070;28;20490;-55
2023/05/16 09:58:46;;;;;;;7.13;2.27;;;12.10;30.80;;;;;;5011526;28;20908;-56
2023/05/16 10:01:12;;;;;;;7.10;2.50;;;12.10;36.20;;;;;;5012167;28;20488;-56
2023/05/16 10:03:42;;;;;;;10.57;2.67;;;12.20;33.30;;;;;;5026911;22;20492;-53
2023/05/16 10:06:09;;;;;;;9.60;2.90;;;12.10;25.10;;;;;;5012029;28;20849;-52
2023/05/16 10:08:36;;;;;;;10.67;2.73;;;12.10;26.70;;;;;;5013832;28;20541;-52
2023/05/16 10:11:04;;;;;;;8.83;2.43;;;12.10;22.10;;;;;;5012817;28;20884;-53
2023/05/16 10:13:33;;;;;;;8.10;2.27;;;11.90;90.20;;;;;;5014916;28;20569;-51
2023/05/16 10:16:06;;;;;;;10.67;2.77;;;11.90;92.60;;;;;;5011372;28;20980;-53
2023/05/16 10:18:35;;;;;;;11.70;2.60;;;11.90;99.90;;;;;;5010456;28;20508;-53
2023/05/16 10:21:05;;;;;;;12.57;2.40;;;11.90;99.90;;;;;;5005721;28;20541;-52
2023/05/16 10:23:33;;;;;;;5.37;2.10;;;11.80;99.90;;;;;;5011544;28;20510;-51
2023/05/16 10:26:02;;;;;;;11.10;2.60;;;11.80;99.90;;;;;;5011661;28;20993;-52
2023/05/16 10:28:29;;;;;;;7.20;2.47;;;11.80;99.90;;;;;;5005217;28;20475;-52
2023/05/16 10:30:57;;;;;;;18.30;4.17;;;11.80;99.90;;;;;;5008620;28;20499;-52
2023/05/16 10:33:25;;;;;;;9.23;2.43;;;11.90;99.90;;;;;;5006783;28;20503;-52
2023/05/16 10:35:52;;;;;;;4.70;1.90;;;11.90;99.90;;;;;;5009859;28;20474;-52
2023/05/16 10:38:20;;;;;;;7.40;3.10;;;12.00;99.90;;;;;;5011772;28;20952;-52
2023/05/16 10:40:48;;;;;;;7.17;2.37;;;11.90;23.40;;;;;;5011131;28;20540;-52
2023/05/16 10:43:23;;;;;;;14.30;2.77;;;12.00;89.70;;;;;;5009280;28;20479;-53
2023/05/16 10:45:55;;;;;;;11.73;2.70;;;12.00;20.00;;;;;;5006308;28;20459;-52
2023/05/16 10:48:30;;;;;;;6.90;2.40;;;12.20;99.90;;;;;;5013467;28;20554;-53
2023/05/16 10:50:57;;;;;;;7.23;2.60;;;12.30;25.40;;;;;;5010424;28;20481;-52
2023/05/16 10:53:30;;;;;;;12.93;2.33;;;12.40;34.20;;;;;;5010738;28;20504;-51
2023/05/16 10:56:11;;;;;;;13.83;3.20;;;12.40;35.80;;;;;;5010988;28;20494;-53
2023/05/16 10:58:42;;;;;;;11.90;2.57;;;12.70;38.50;;;;;;5009392;28;20517;-53
2023/05/16 11:01:19;;;;;;;12.20;3.00;;;12.70;61.30;;;;;;5010905;28;20515;-53
2023/05/16 11:06:49;;;;;;;14.40;2.17;;;12.60;65.60;;;;;;5092782;27;20529;-54
2023/05/16 11:09:26;;;;;;;13.90;2.73;;;12.60;80.00;;;;;;5089072;28;20862;-51
2023/05/16 11:11:56;;;;;;;15.87;3.83;;;12.60;64.30;;;;;;5083613;28;20464;-52
2023/05/16 11:14:24;;;;;;;12.00;2.47;;;12.50;75.20;;;;;;5074246;28;20538;-53
2023/05/16 11:16:51;;;;;;;10.50;2.70;;;12.60;65.40;;;;;;5064813;28;20832;-53
2023/05/16 11:19:32;;;;;;;11.33;3.50;;;12.60;83.60;;;;;;5076502;28;20497;-53
2023/05/16 11:22:08;;;;;;;17.93;3.27;;;12.60;85.20;;;;;;5070104;28;20952;-53
2023/05/16 11:24:36;;;;;;;15.33;3.67;;;12.70;99.90;;;;;;5055686;28;20550;-52
2023/05/16 11:27:04;;;;;;;15.10;3.47;;;12.90;99.90;;;;;;5063142;28;20573;-54
2023/05/16 11:29:33;;;;;;;21.27;2.70;;;13.00;99.90;;;;;;5077123;28;20492;-54
2023/05/16 11:32:00;;;;;;;21.03;3.27;;;13.10;99.90;;;;;;5066409;28;20886;-51
2023/05/16 11:34:27;;;;;;;14.13;4.00;;;12.90;99.90;;;;;;5067893;28;20907;-52
2023/05/16 11:36:55;;;;;;;11.17;2.40;;;12.90;99.90;;;;;;5072875;28;20464;-52
2023/05/16 11:39:24;;;;;;;7.97;3.13;;;13.10;99.90;;;;;;5061622;28;20508;-51
2023/05/16 11:41:50;;;;;;;12.03;3.30;;;13.70;22.70;;;;;;5063373;28;20458;-52
2023/05/16 11:44:17;;;;;;;10.23;3.20;;;14.80;99.90;;;;;;5062461;28;20979;-53
2023/05/16 11:46:44;;;;;;;7.90;2.70;;;15.60;99.90;;;;;;5059923;28;20482;-54
2023/05/16 11:49:11;;;;;;;8.30;2.10;;;15.40;99.90;;;;;;5065447;28;20469;-51
2023/05/16 11:51:38;;;;;;;10.27;3.03;;;14.70;99.90;;;;;;5062165;28;20497;-53
2023/05/16 11:54:05;;;;;;;14.77;3.00;;;14.20;99.90;;;;;;5067181;28;20512;-51
2023/05/16 11:56:34;;;;;;;16.30;2.83;;;14.10;99.90;;;;;;5067400;28;20521;-51
2023/05/16 11:59:01;;;;;;;8.73;2.90;;;14.20;1.40;;;;;;5062615;28;20518;-51
2023/05/16 12:01:33;;;;;;;12.40;3.40;;;14.20;99.90;;;;;;5057401;28;20461;-53
2023/05/16 12:03:59;;;;;;;22.53;3.77;;;14.20;99.90;;;;;;5062910;28;20537;-53
2023/05/16 12:06:28;;;;;;;14.30;3.63;;;14.10;99.90;;;;;;5067155;28;21169;-51
2023/05/16 12:08:54;;;;;;;10.70;3.23;;;14.20;99.90;;;;;;5065087;28;20493;-51
2023/05/16 12:11:23;;;;;;;12.63;3.10;;;14.30;99.90;;;;;;5066631;28;20880;-52
2023/05/16 12:13:51;;;;;;;11.83;3.13;;;14.30;99.90;;;;;;5069500;28;20484;-53
2023/05/16 12:16:18;;;;;;;9.47;2.67;;;14.90;99.90;;;;;;5065517;28;20530;-52
2023/05/16 12:18:45;;;;;;;9.17;2.40;;;15.90;99.90;;;;;;5052525;28;21130;-54
2023/05/16 12:21:12;;;;;;;8.77;2.20;;;16.10;99.90;;;;;;5053926;28;20457;-53
2023/05/16 12:23:41;;;;;;;9.37;2.20;;;16.50;99.90;;;;;;5045316;28;20504;-53
2023/05/16 12:26:08;;;;;;;7.17;2.03;;;16.50;99.90;;;;;;5047870;28;20482;-52
2023/05/16 12:28:37;;;;;;;8.00;2.43;;;16.10;99.90;;;;;;5049857;28;20457;-52
2023/05/16 12:31:12;;;;;;;21.87;2.90;;;15.60;99.90;;;;;;5046351;28;20466;-52
2023/05/16 12:33:38;;;;;;;12.03;2.70;;;15.30;99.90;;;;;;5050021;28;20457;-52
2023/05/16 12:36:12;;;;;;;22.00;3.13;;;15.10;99.90;;;;;;5051181;28;20482;-52
2023/05/16 12:38:38;;;;;;;8.33;2.50;;;15.00;99.90;;;;;;5053854;28;20497;-52
2023/05/16 12:41:05;;;;;;;11.90;2.53;;;15.20;99.90;;;;;;5051448;28;20494;-51
2023/05/16 12:43:32;;;;;;;18.40;2.53;;;15.10;99.90;;;;;;5047248;28;20575;-51